KLGA/LGA METAR and TAF weather

Enter ICAO airport designator
Station Type Date Time Source
KLGA METAR 2018/12/15 02:59 UTC NOAA

KLGA 150259Z 22004KT 10SM -RA BKN006 OVC050 10/08 A3029 RMK AO2 P0001 T01000083


Station Type Date Time Source
KLGA Decoded METAR 2018/12/15 02:59 UTC NOAA

NEW YORK LA GUARDIA AIRPORT , NY, United States (KLGA) 40-47N 73-53W 11M
Dec 14, 2018 - 09:59 PM EST / 2018.12.15 0259 UTC
Wind: from the SW (220 degrees) at 5 MPH (4 KT):0
Visibility: 10 mile(s):0
Sky conditions: overcast
Weather: light rain
Precipitation last hour: 0.01 inches
Temperature: 50.0 F (10.0 C)
Dew Point: 46.9 F (8.3 C)
Relative Humidity: 89%
Pressure (altimeter): 30.29 in. Hg (1025 hPa)
ob: KLGA 150259Z 22004KT 10SM -RA BKN006 OVC050 10/08 A3029 RMK AO2 P0001 T01000083
cycle: 3

Station Type Date Time Source
KLGA TAF 2018/12/14 22:48 UTC NOAA

TAF
AMD KLGA 142144Z 1422/1524 15005KT P6SM SCT025 BKN070
TEMPO 1422/1424 BKN015 BKN070
FM150600 VRB03KT 5SM -RA BR SCT015 BKN025
FM150900 VRB03KT 3SM -RA BR SCT007 BKN015
FM151600 03007KT 6SM BR VCSH SCT015 BKN025
FM151900 02010G16KT P6SM SCT025 BKN035


Example: see airport list